Time;durP1;ratioP1;P1;durP2;ratioP2;P2;SDS_P1;SDS_P2;PMS_P1;PMS_P2;Temp;Humidity;BMP_temperature;BMP_pressure;BME280_temperature;BME280_humidity;BME280_pressure;Samples;Min_cycle;Max_cycle;Signal;HPM_P1;HPM_P2
2021/04/22 00:02:03;;;;;;;10.67;2.97;;;6.30;99.90;;;;;;4984870;28;20641;-58
2021/04/22 00:04:30;;;;;;;15.63;3.60;;;6.30;99.90;;;;;;4974326;28;20238;-58
2021/04/22 00:06:59;;;;;;;20.70;4.43;;;6.30;99.90;;;;;;4968048;28;20239;-59
2021/04/22 00:09:28;;;;;;;16.70;3.30;;;6.30;99.90;;;;;;4978179;28;20619;-60
2021/04/22 00:11:55;;;;;;;18.37;3.57;;;6.30;99.90;;;;;;4981607;28;20296;-59
2021/04/22 00:14:23;;;;;;;13.10;2.90;;;6.30;99.90;;;;;;4989266;28;20254;-60
2021/04/22 00:16:50;;;;;;;13.83;3.43;;;6.30;99.90;;;;;;4991493;28;20238;-60
2021/04/22 00:19:17;;;;;;;14.13;3.20;;;6.30;99.90;;;;;;4991604;28;20244;-59
2021/04/22 00:21:45;;;;;;;18.73;3.70;;;6.30;99.90;;;;;;4990340;28;20304;-59
2021/04/22 00:24:13;;;;;;;16.20;3.27;;;6.30;99.90;;;;;;4974882;28;20230;-59
2021/04/22 00:26:41;;;;;;;12.47;3.10;;;6.30;99.90;;;;;;4972300;28;20594;-59
2021/04/22 00:29:08;;;;;;;15.53;3.37;;;6.30;99.90;;;;;;4972693;28;20234;-58
2021/04/22 00:31:35;;;;;;;20.23;3.23;;;6.30;99.90;;;;;;4971182;28;20289;-60
2021/04/22 00:34:03;;;;;;;14.60;3.17;;;6.30;99.90;;;;;;4978783;28;20320;-58
2021/04/22 00:36:30;;;;;;;19.37;3.60;;;6.30;99.90;;;;;;4991642;28;20238;-56
2021/04/22 00:38:57;;;;;;;17.10;4.10;;;6.30;99.90;;;;;;4991324;28;20624;-60
2021/04/22 00:41:26;;;;;;;17.37;3.33;;;6.30;99.90;;;;;;4990510;28;20321;-58
2021/04/22 00:43:55;;;;;;;14.97;3.17;;;6.30;99.90;;;;;;4990654;28;20694;-60
2021/04/22 00:46:22;;;;;;;14.83;3.60;;;6.30;99.90;;;;;;4973283;28;20230;-59
2021/04/22 00:48:49;;;;;;;13.03;3.40;;;6.30;99.90;;;;;;4974369;28;20238;-59
2021/04/22 00:51:19;;;;;;;15.67;3.93;;;6.30;99.90;;;;;;4971496;28;20298;-59
2021/04/22 00:53:47;;;;;;;9.20;2.63;;;6.30;99.90;;;;;;4971305;28;20325;-58
2021/04/22 00:56:15;;;;;;;14.97;3.93;;;6.30;99.90;;;;;;4982931;28;20238;-59
2021/04/22 00:58:42;;;;;;;13.40;3.10;;;6.30;99.90;;;;;;4990439;28;20241;-60
2021/04/22 01:01:11;;;;;;;13.63;3.73;;;6.30;99.90;;;;;;4984217;28;20350;-59
2021/04/22 01:03:38;;;;;;;13.77;3.50;;;6.30;99.90;;;;;;4974179;28;20238;-59
2021/04/22 01:06:08;;;;;;;19.13;3.87;;;6.30;99.90;;;;;;4975317;28;20713;-59
2021/04/22 01:08:35;;;;;;;19.33;3.80;;;6.30;99.90;;;;;;4975681;28;20253;-59
2021/04/22 01:11:05;;;;;;;16.27;3.30;;;6.30;99.90;;;;;;4981198;28;20308;-58
2021/04/22 01:13:32;;;;;;;13.70;3.67;;;6.20;99.90;;;;;;4990529;28;20242;-59
2021/04/22 01:16:00;;;;;;;17.00;3.90;;;6.20;99.90;;;;;;4988693;28;20661;-55
2021/04/22 01:18:28;;;;;;;13.97;3.50;;;6.30;99.90;;;;;;4989221;28;20242;-57
2021/04/22 01:20:55;;;;;;;16.10;3.50;;;6.30;99.90;;;;;;4970715;28;20317;-59
2021/04/22 01:23:23;;;;;;;14.40;2.90;;;6.30;99.90;;;;;;4980738;28;20237;-58
2021/04/22 01:25:53;;;;;;;16.47;3.17;;;6.30;99.90;;;;;;4989802;28;20296;-57
2021/04/22 01:28:26;;;;;;;20.53;3.87;;;6.20;99.90;;;;;;4990234;28;20265;-59
2021/04/22 01:30:56;;;;;;;15.63;3.50;;;6.20;99.90;;;;;;4982943;28;20329;-59
2021/04/22 01:33:26;;;;;;;19.17;3.70;;;6.30;99.90;;;;;;4970952;28;20651;-59
2021/04/22 01:35:57;;;;;;;13.43;3.80;;;6.20;99.90;;;;;;4970811;28;20250;-59
2021/04/22 01:38:27;;;;;;;11.73;2.77;;;6.30;99.90;;;;;;4970730;28;20285;-59
2021/04/22 01:40:55;;;;;;;13.73;3.20;;;6.30;99.90;;;;;;4954859;28;20894;-60
2021/04/22 01:43:22;;;;;;;19.10;3.40;;;6.30;99.90;;;;;;4951459;28;20235;-58
2021/04/22 01:45:49;;;;;;;17.97;3.97;;;6.30;99.90;;;;;;4965539;28;20691;-57
2021/04/22 01:48:17;;;;;;;11.00;2.90;;;6.30;99.90;;;;;;4968738;28;20242;-58
2021/04/22 01:50:46;;;;;;;14.93;3.80;;;6.30;99.90;;;;;;4950538;28;20787;-60
2021/04/22 01:53:13;;;;;;;12.07;3.17;;;6.30;99.90;;;;;;4951390;28;20572;-57
2021/04/22 01:55:44;;;;;;;12.50;2.83;;;6.20;99.90;;;;;;4951204;28;20702;-60
2021/04/22 01:58:14;;;;;;;15.17;2.97;;;6.20;99.90;;;;;;4951315;28;20331;-55
2021/04/22 02:00:46;;;;;;;13.37;3.87;;;6.30;99.90;;;;;;4969510;28;20265;-60
2021/04/22 02:03:14;;;;;;;13.37;3.10;;;6.30;99.90;;;;;;4985379;28;20301;-59
2021/04/22 02:05:42;;;;;;;17.73;2.83;;;6.20;99.90;;;;;;5001002;28;20248;-59
2021/04/22 02:08:14;;;;;;;14.17;3.07;;;6.30;99.90;;;;;;5009533;28;20241;-60
2021/04/22 02:10:43;;;;;;;16.07;3.20;;;6.30;99.90;;;;;;5008611;28;20747;-57
2021/04/22 02:13:14;;;;;;;19.43;3.53;;;6.30;99.90;;;;;;4998882;28;20322;-59
2021/04/22 02:15:42;;;;;;;21.33;3.20;;;6.30;99.90;;;;;;4989415;28;20272;-60
2021/04/22 02:18:09;;;;;;;17.37;3.77;;;6.20;99.90;;;;;;4989687;28;20241;-58
2021/04/22 02:20:37;;;;;;;14.40;3.73;;;6.20;99.90;;;;;;4989286;28;20656;-56
2021/04/22 02:23:10;;;;;;;14.53;3.50;;;6.20;99.90;;;;;;4989234;28;20256;-59
2021/04/22 02:25:37;;;;;;;19.77;4.37;;;6.20;99.90;;;;;;4970222;28;20238;-57
2021/04/22 02:28:06;;;;;;;18.10;3.57;;;6.20;99.90;;;;;;4969664;28;20244;-59
2021/04/22 02:30:36;;;;;;;18.73;3.23;;;6.20;99.90;;;;;;4968654;28;20254;-59
2021/04/22 02:33:07;;;;;;;16.80;3.40;;;6.20;99.90;;;;;;4969748;28;20237;-61
2021/04/22 02:35:36;;;;;;;15.93;2.90;;;6.20;99.90;;;;;;4969690;28;20784;-59
2021/04/22 02:38:06;;;;;;;14.77;3.93;;;6.20;99.90;;;;;;4969169;28;20541;-60
2021/04/22 02:40:35;;;;;;;12.63;3.00;;;6.20;99.90;;;;;;4968860;28;20332;-59
2021/04/22 02:43:08;;;;;;;14.97;3.10;;;6.30;99.90;;;;;;4986901;28;20325;-60
2021/04/22 02:45:38;;;;;;;9.77;3.30;;;6.30;99.90;;;;;;4986413;28;20300;-58
2021/04/22 02:48:07;;;;;;;14.17;2.90;;;6.30;99.90;;;;;;4970036;28;20235;-60
2021/04/22 02:50:38;;;;;;;15.80;3.73;;;6.30;99.90;;;;;;4971324;28;20309;-60
2021/04/22 02:53:07;;;;;;;16.33;4.03;;;6.30;99.90;;;;;;4969408;28;20261;-60
2021/04/22 02:55:35;;;;;;;15.80;3.40;;;6.30;99.90;;;;;;4971178;28;20237;-58
2021/04/22 02:58:24;;;;;;;18.07;3.73;;;6.30;99.90;;;;;;4990284;28;20249;-59
2021/04/22 03:00:54;;;;;;;10.90;3.20;;;6.30;99.90;;;;;;4972005;28;20239;-59
2021/04/22 03:03:22;;;;;;;14.40;3.70;;;6.20;99.90;;;;;;4959338;28;20702;-60
2021/04/22 03:05:50;;;;;;;15.43;4.13;;;6.30;99.90;;;;;;4959930;28;20223;-59
2021/04/22 03:08:17;;;;;;;16.53;3.23;;;6.30;99.90;;;;;;4950388;28;20236;-60
2021/04/22 03:10:45;;;;;;;11.13;3.20;;;6.30;99.90;;;;;;4967968;28;20654;-59
2021/04/22 03:13:13;;;;;;;12.63;3.20;;;6.30;99.90;;;;;;4969005;28;20722;-59
2021/04/22 03:15:41;;;;;;;16.10;3.60;;;6.20;99.90;;;;;;4969269;28;20234;-59
2021/04/22 03:18:10;;;;;;;14.77;3.20;;;6.20;99.90;;;;;;4956662;28;20251;-59
2021/04/22 03:20:39;;;;;;;12.87;3.03;;;6.20;99.90;;;;;;4957002;28;20242;-59
2021/04/22 03:23:07;;;;;;;13.13;3.27;;;6.20;99.90;;;;;;4969010;28;20282;-59
2021/04/22 03:25:35;;;;;;;12.97;2.67;;;6.20;99.90;;;;;;4969316;28;20239;-59
2021/04/22 03:28:03;;;;;;;15.30;2.97;;;6.20;99.90;;;;;;4969571;28;20242;-60
2021/04/22 03:30:32;;;;;;;14.33;2.73;;;6.20;99.90;;;;;;4970964;28;20676;-58
2021/04/22 03:33:02;;;;;;;16.23;3.30;;;6.20;99.90;;;;;;4971630;28;20261;-59
2021/04/22 03:35:29;;;;;;;18.67;3.80;;;6.30;99.90;;;;;;4969133;28;20309;-57
2021/04/22 03:37:57;;;;;;;10.83;3.30;;;6.20;99.90;;;;;;4969192;28;20793;-60
2021/04/22 03:40:26;;;;;;;12.07;3.00;;;6.20;99.90;;;;;;4968445;28;20238;-58
2021/04/22 03:42:54;;;;;;;13.13;3.43;;;6.20;99.90;;;;;;4968801;28;20238;-58
2021/04/22 03:45:24;;;;;;;11.80;2.83;;;6.20;99.90;;;;;;4968865;28;20733;-60
2021/04/22 03:47:51;;;;;;;14.17;2.80;;;6.20;99.90;;;;;;4968981;28;20242;-58
2021/04/22 03:50:21;;;;;;;16.87;3.27;;;6.30;99.90;;;;;;4986017;28;20229;-58
2021/04/22 03:52:48;;;;;;;13.50;2.70;;;6.30;99.90;;;;;;4991732;28;20245;-60
2021/04/22 03:55:18;;;;;;;14.60;3.20;;;6.30;99.90;;;;;;4986044;28;20244;-59
2021/04/22 03:57:46;;;;;;;14.80;3.30;;;6.30;99.90;;;;;;4987877;28;20293;-57
2021/04/22 04:00:18;;;;;;;14.77;2.80;;;6.30;99.90;;;;;;4999519;28;20268;-59
2021/04/22 04:02:46;;;;;;;18.07;3.60;;;6.30;99.90;;;;;;4993315;28;20281;-59
2021/04/22 04:05:14;;;;;;;11.77;2.43;;;6.30;99.90;;;;;;4991909;28;20260;-59
2021/04/22 04:07:42;;;;;;;14.67;3.30;;;6.30;99.90;;;;;;4991840;28;20234;-60
2021/04/22 04:10:11;;;;;;;14.33;3.00;;;6.30;99.90;;;;;;4991416;28;20345;-59
2021/04/22 04:12:39;;;;;;;12.53;2.80;;;6.30;99.90;;;;;;4990084;28;20261;-60
2021/04/22 04:15:09;;;;;;;15.90;3.33;;;6.30;99.90;;;;;;4972603;28;20227;-57
2021/04/22 04:17:37;;;;;;;10.30;2.97;;;6.30;99.90;;;;;;4972547;28;20276;-58
2021/04/22 04:20:08;;;;;;;14.70;3.37;;;6.30;99.90;;;;;;4975994;28;20690;-60
2021/04/22 04:22:36;;;;;;;20.03;3.47;;;6.30;99.90;;;;;;4980384;28;20242;-60
2021/04/22 04:25:05;;;;;;;12.77;3.03;;;6.20;99.90;;;;;;4981065;28;20244;-59
2021/04/22 04:27:33;;;;;;;18.67;3.03;;;6.30;99.90;;;;;;4982240;28;20230;-59
2021/04/22 04:30:00;;;;;;;10.13;2.73;;;6.30;99.90;;;;;;4980848;28;20236;-58
2021/04/22 04:32:28;;;;;;;14.60;3.40;;;6.30;99.90;;;;;;4961395;28;20242;-60
2021/04/22 04:34:55;;;;;;;13.00;3.03;;;6.30;99.90;;;;;;4963002;28;20694;-59
2021/04/22 04:37:22;;;;;;;15.43;2.90;;;6.30;99.90;;;;;;4960351;28;20297;-58
2021/04/22 04:39:50;;;;;;;16.37;3.27;;;6.30;99.90;;;;;;4952416;28;20243;-59
2021/04/22 04:42:19;;;;;;;15.47;3.57;;;6.30;99.90;;;;;;4967228;28;20309;-60
2021/04/22 04:44:46;;;;;;;11.90;3.03;;;6.30;99.90;;;;;;4967068;28;20792;-60
2021/04/22 04:47:14;;;;;;;18.93;3.97;;;6.30;99.90;;;;;;4971693;28;20242;-57
2021/04/22 04:49:44;;;;;;;14.03;3.20;;;6.30;99.90;;;;;;4969724;28;20738;-60
2021/04/22 04:52:11;;;;;;;20.63;4.13;;;6.30;99.90;;;;;;4969482;28;20243;-60
2021/04/22 04:54:38;;;;;;;17.43;3.37;;;6.30;99.90;;;;;;4962727;28;20238;-60
2021/04/22 04:57:08;;;;;;;15.67;3.30;;;6.30;99.90;;;;;;4958314;28;20222;-56
2021/04/22 04:59:36;;;;;;;11.80;2.87;;;6.30;99.90;;;;;;4972983;28;20264;-56
2021/04/22 05:02:04;;;;;;;12.33;3.30;;;6.20;99.90;;;;;;4969901;28;20705;-56
2021/04/22 05:04:33;;;;;;;15.83;3.30;;;6.10;99.90;;;;;;4971081;28;20254;-59
2021/04/22 05:07:00;;;;;;;15.53;3.40;;;6.00;99.90;;;;;;4971768;28;20247;-59
2021/04/22 05:09:27;;;;;;;19.27;3.07;;;5.90;99.90;;;;;;4971388;28;20395;-59
2021/04/22 05:11:55;;;;;;;15.90;2.93;;;6.00;99.90;;;;;;4970973;28;20737;-59
2021/04/22 05:14:22;;;;;;;13.00;2.70;;;6.10;99.90;;;;;;4970786;28;20322;-57
2021/04/22 05:16:50;;;;;;;13.73;3.30;;;6.00;99.90;;;;;;4971078;28;20226;-59
2021/04/22 05:19:18;;;;;;;18.30;3.10;;;6.00;99.90;;;;;;4970970;28;20549;-58
2021/04/22 05:21:45;;;;;;;12.40;2.73;;;5.80;99.90;;;;;;4970938;28;20241;-58
2021/04/22 05:24:12;;;;;;;11.93;2.70;;;5.80;99.90;;;;;;4970561;28;20594;-59
2021/04/22 05:26:40;;;;;;;11.20;3.33;;;5.80;99.90;;;;;;4983979;28;20240;-60
2021/04/22 05:29:07;;;;;;;15.57;2.50;;;5.80;99.90;;;;;;4981894;28;20248;-59
2021/04/22 05:31:35;;;;;;;11.07;3.07;;;5.90;99.90;;;;;;4982796;28;20690;-58
2021/04/22 05:34:05;;;;;;;10.17;2.70;;;5.80;99.90;;;;;;4989834;28;20242;-59
2021/04/22 05:36:32;;;;;;;18.57;3.10;;;5.80;99.90;;;;;;4990107;28;20238;-60
2021/04/22 05:39:00;;;;;;;17.30;2.87;;;5.90;99.90;;;;;;4980959;28;20247;-60
2021/04/22 05:41:28;;;;;;;18.23;3.10;;;6.00;99.90;;;;;;4974465;28;20234;-60
2021/04/22 05:43:55;;;;;;;12.60;2.83;;;6.10;99.90;;;;;;4979253;28;20238;-57
2021/04/22 05:46:22;;;;;;;16.47;3.23;;;6.20;99.90;;;;;;4970363;28;20267;-58
2021/04/22 05:48:50;;;;;;;17.57;3.37;;;6.30;99.90;;;;;;4969666;28;20226;-59
2021/04/22 05:51:19;;;;;;;17.10;3.67;;;6.30;99.90;;;;;;4976338;28;20575;-58
2021/04/22 05:53:47;;;;;;;13.73;2.63;;;6.30;99.90;;;;;;4975443;28;20239;-60
2021/04/22 05:56:14;;;;;;;14.97;3.30;;;6.30;99.90;;;;;;4985100;28;20230;-59
2021/04/22 05:58:42;;;;;;;14.37;2.63;;;6.30;99.90;;;;;;4993924;28;20237;-60
2021/04/22 06:01:10;;;;;;;9.67;2.03;;;6.30;99.90;;;;;;4973481;28;20345;-60
2021/04/22 06:03:37;;;;;;;16.07;2.80;;;6.20;99.90;;;;;;4969935;28;20654;-58
2021/04/22 06:06:05;;;;;;;15.80;2.90;;;6.10;99.90;;;;;;4967676;28;20242;-60
2021/04/22 06:08:34;;;;;;;9.83;2.50;;;6.10;99.90;;;;;;4961004;28;20243;-59
2021/04/22 06:11:01;;;;;;;13.77;2.83;;;6.20;99.90;;;;;;4963319;28;20270;-58
2021/04/22 06:13:28;;;;;;;11.77;2.53;;;6.20;99.90;;;;;;4965588;28;20313;-59
2021/04/22 06:15:55;;;;;;;8.27;2.10;;;6.30;99.90;;;;;;4945974;28;20773;-60
2021/04/22 06:18:23;;;;;;;11.47;2.30;;;6.60;99.90;;;;;;4937711;28;20239;-59
2021/04/22 06:20:50;;;;;;;14.07;2.80;;;6.70;99.90;;;;;;4937923;28;20257;-59
2021/04/22 06:23:26;;;;;;;13.63;2.93;;;6.60;99.90;;;;;;4943252;28;20288;-58
2021/04/22 06:25:55;;;;;;;18.23;2.60;;;6.60;99.90;;;;;;4945859;28;20236;-60
2021/04/22 06:28:23;;;;;;;14.57;2.87;;;6.50;99.90;;;;;;4943351;28;20251;-59
2021/04/22 06:30:51;;;;;;;16.27;2.70;;;6.50;99.90;;;;;;4957131;28;20240;-61
2021/04/22 06:33:19;;;;;;;18.30;3.20;;;6.50;99.90;;;;;;4966214;28;20242;-59
2021/04/22 06:35:47;;;;;;;15.87;2.80;;;6.60;99.90;;;;;;4958285;28;20245;-58
2021/04/22 06:38:14;;;;;;;15.93;3.10;;;6.70;99.90;;;;;;4962521;28;20243;-59
2021/04/22 06:40:42;;;;;;;12.90;3.00;;;6.70;99.90;;;;;;4960716;28;20237;-58
2021/04/22 06:43:13;;;;;;;13.67;3.10;;;6.80;99.90;;;;;;4968393;28;20365;-60
2021/04/22 06:45:42;;;;;;;14.67;3.13;;;6.80;99.90;;;;;;4960836;28;20783;-57
2021/04/22 06:48:11;;;;;;;11.03;2.77;;;6.80;99.90;;;;;;4958563;28;20324;-59
2021/04/22 06:50:39;;;;;;;12.13;3.00;;;6.90;99.90;;;;;;4962525;28;20281;-60
2021/04/22 06:53:06;;;;;;;14.30;4.03;;;6.90;99.90;;;;;;4957681;28;20264;-60
2021/04/22 06:55:34;;;;;;;16.37;3.37;;;6.90;99.90;;;;;;4969752;28;20242;-60
2021/04/22 06:58:05;;;;;;;17.70;2.97;;;7.00;99.90;;;;;;4968067;28;20270;-59
2021/04/22 07:00:37;;;;;;;17.53;2.90;;;7.20;99.90;;;;;;4952535;28;20325;-59
2021/04/22 07:03:07;;;;;;;18.90;3.67;;;7.20;99.90;;;;;;4957495;28;20250;-60
2021/04/22 07:05:36;;;;;;;19.37;3.60;;;7.30;99.90;;;;;;4942221;28;20927;-59
2021/04/22 07:08:05;;;;;;;10.37;2.60;;;7.30;99.90;;;;;;4938984;28;20250;-59
2021/04/22 07:10:33;;;;;;;18.17;3.93;;;7.30;99.90;;;;;;4938097;28;20341;-59
2021/04/22 07:13:06;;;;;;;17.40;3.03;;;7.30;99.90;;;;;;4941792;28;20500;-60
2021/04/22 07:15:34;;;;;;;14.17;2.77;;;7.30;99.90;;;;;;4937627;28;20259;-55
2021/04/22 07:18:01;;;;;;;17.33;3.27;;;7.30;99.90;;;;;;4949003;28;20246;-59
2021/04/22 07:20:29;;;;;;;16.53;3.13;;;7.20;99.90;;;;;;4946329;28;20727;-59
2021/04/22 07:22:59;;;;;;;16.60;3.03;;;7.20;99.90;;;;;;4946018;28;20247;-59
2021/04/22 07:25:30;;;;;;;19.67;4.23;;;7.20;99.90;;;;;;4937383;28;20321;-59
2021/04/22 07:27:58;;;;;;;12.50;2.87;;;7.30;99.90;;;;;;4946925;28;20251;-60
2021/04/22 07:30:26;;;;;;;16.43;3.00;;;7.40;99.90;;;;;;4948572;28;20300;-57
2021/04/22 07:32:54;;;;;;;13.97;3.53;;;7.40;99.90;;;;;;4984819;28;20260;-59
2021/04/22 07:35:22;;;;;;;11.57;3.00;;;7.50;99.90;;;;;;4985185;28;20264;-59
2021/04/22 07:37:51;;;;;;;17.93;3.67;;;7.50;99.90;;;;;;4968746;28;20265;-57
2021/04/22 07:40:21;;;;;;;17.57;3.47;;;7.50;99.90;;;;;;4968263;28;20297;-59
2021/04/22 07:42:49;;;;;;;15.83;3.53;;;7.70;99.90;;;;;;4973170;28;20650;-59
2021/04/22 07:45:19;;;;;;;25.73;3.90;;;7.60;99.90;;;;;;4978506;28;20382;-60
2021/04/22 07:47:47;;;;;;;22.63;3.67;;;7.70;99.90;;;;;;4987570;28;20261;-58
2021/04/22 07:50:17;;;;;;;14.33;2.97;;;7.70;99.90;;;;;;4992317;28;20253;-58
2021/04/22 07:52:44;;;;;;;15.23;3.50;;;7.70;99.90;;;;;;4999912;28;20307;-59
2021/04/22 07:55:20;;;;;;;20.23;4.37;;;7.80;99.90;;;;;;4987536;28;20237;-55
2021/04/22 07:57:49;;;;;;;17.40;3.90;;;7.80;99.90;;;;;;4972402;28;20229;-60
2021/04/22 08:00:19;;;;;;;20.23;4.33;;;8.00;99.90;;;;;;4974263;28;20709;-57
2021/04/22 08:02:48;;;;;;;21.57;4.23;;;8.00;99.90;;;;;;4972474;28;20647;-57
2021/04/22 08:05:20;;;;;;;14.10;3.40;;;7.90;99.90;;;;;;4978291;28;20247;-57
2021/04/22 08:08:05;;;;;;;18.63;3.63;;;7.80;99.90;;;;;;4977527;28;20654;-59
2021/04/22 08:10:36;;;;;;;16.47;4.07;;;7.80;99.90;;;;;;4984623;28;20229;-60
2021/04/22 08:13:05;;;;;;;15.50;3.20;;;7.80;99.90;;;;;;4987854;28;20315;-59
2021/04/22 08:15:34;;;;;;;17.50;4.00;;;7.80;99.90;;;;;;4985037;28;20241;-57
2021/04/22 08:18:03;;;;;;;16.90;4.73;;;7.80;99.90;;;;;;4987729;28;20247;-59
2021/04/22 08:20:32;;;;;;;15.67;4.13;;;8.00;99.90;;;;;;4977026;28;20246;-58
2021/04/22 08:23:02;;;;;;;16.07;4.10;;;8.30;99.90;;;;;;4968969;28;20263;-59
2021/04/22 08:25:33;;;;;;;17.93;4.20;;;8.30;99.90;;;;;;4968474;28;20243;-56
2021/04/22 08:28:01;;;;;;;19.70;3.60;;;8.60;99.90;;;;;;4968682;28;20660;-59
2021/04/22 08:30:31;;;;;;;15.97;4.13;;;8.70;99.90;;;;;;4967505;28;20566;-57
2021/04/22 08:33:00;;;;;;;16.17;3.37;;;8.80;99.90;;;;;;4978951;28;20573;-57
2021/04/22 08:35:28;;;;;;;12.97;4.10;;;8.60;99.90;;;;;;4967722;28;20237;-57
2021/04/22 08:37:57;;;;;;;16.27;4.60;;;8.30;99.90;;;;;;4971889;28;20246;-58
2021/04/22 08:40:25;;;;;;;13.87;4.27;;;8.20;99.90;;;;;;4981395;28;20243;-58
2021/04/22 08:42:53;;;;;;;13.33;3.30;;;8.20;99.90;;;;;;4989707;28;20324;-58
2021/04/22 08:45:22;;;;;;;17.63;3.90;;;8.20;99.90;;;;;;4989755;28;20233;-59
2021/04/22 08:47:49;;;;;;;12.23;3.50;;;8.20;99.90;;;;;;4989441;28;20229;-57
2021/04/22 08:50:21;;;;;;;10.77;3.70;;;8.30;99.90;;;;;;5001634;28;20268;-60
2021/04/22 08:52:49;;;;;;;12.53;3.80;;;8.30;99.90;;;;;;4990415;28;20266;-59
2021/04/22 08:55:19;;;;;;;15.33;4.13;;;8.30;99.90;;;;;;4983792;28;20818;-55
2021/04/22 08:57:46;;;;;;;17.17;4.20;;;8.40;99.90;;;;;;4990669;28;20276;-58
2021/04/22 09:00:17;;;;;;;11.60;4.03;;;8.40;99.90;;;;;;4980526;28;20242;-56
2021/04/22 09:02:45;;;;;;;11.10;3.77;;;8.30;99.90;;;;;;4971389;28;20258;-57
2021/04/22 09:05:15;;;;;;;14.20;4.73;;;8.40;99.90;;;;;;4971581;28;20240;-58
2021/04/22 09:07:43;;;;;;;17.00;4.57;;;8.40;99.90;;;;;;4972423;28;20239;-56
2021/04/22 09:10:14;;;;;;;12.60;3.57;;;8.40;99.90;;;;;;4979400;28;20228;-58
2021/04/22 09:12:43;;;;;;;12.10;4.40;;;8.50;99.90;;;;;;4971192;28;20313;-57
2021/04/22 09:15:13;;;;;;;16.07;4.27;;;8.80;99.90;;;;;;4973666;28;20754;-57
2021/04/22 09:17:41;;;;;;;14.03;4.30;;;8.80;99.90;;;;;;4990184;28;20577;-58
2021/04/22 09:20:11;;;;;;;9.97;4.10;;;8.60;99.90;;;;;;4981425;28;20243;-57
2021/04/22 09:22:41;;;;;;;14.67;4.47;;;8.70;99.90;;;;;;4970924;28;20234;-56
2021/04/22 09:25:14;;;;;;;12.37;3.70;;;8.80;99.90;;;;;;4982631;28;20243;-59
2021/04/22 09:27:43;;;;;;;12.70;3.73;;;8.80;99.90;;;;;;4989765;28;20249;-57
2021/04/22 09:30:14;;;;;;;17.73;4.33;;;8.90;99.90;;;;;;4988598;28;20296;-59
2021/04/22 09:32:42;;;;;;;10.93;3.83;;;8.90;99.90;;;;;;4983251;28;20842;-57
2021/04/22 09:35:14;;;;;;;19.53;5.30;;;8.90;99.90;;;;;;4970865;28;20319;-59
2021/04/22 09:37:45;;;;;;;14.37;4.20;;;8.90;99.90;;;;;;4970391;28;20269;-59
2021/04/22 09:40:16;;;;;;;14.23;4.40;;;8.90;99.90;;;;;;4991148;28;20240;-60
2021/04/22 09:42:45;;;;;;;16.23;4.67;;;8.90;99.90;;;;;;4992340;28;20242;-55
2021/04/22 09:45:16;;;;;;;15.47;4.27;;;9.00;99.90;;;;;;5001239;28;20237;-57
2021/04/22 09:47:44;;;;;;;11.77;3.97;;;9.10;99.90;;;;;;5002019;28;20268;-59
2021/04/22 09:50:16;;;;;;;17.00;4.97;;;9.30;99.90;;;;;;4990722;28;20779;-58
2021/04/22 09:52:47;;;;;;;11.67;3.50;;;9.10;99.90;;;;;;4980400;28;20250;-56
2021/04/22 09:55:17;;;;;;;13.83;4.40;;;9.10;99.90;;;;;;4977781;28;20243;-59
2021/04/22 09:57:46;;;;;;;13.23;3.93;;;9.20;99.90;;;;;;4970562;28;20362;-59
2021/04/22 10:00:25;;;;;;;11.57;4.87;;;9.10;99.90;;;;;;4976470;28;20244;-59
2021/04/22 10:02:57;;;;;;;13.17;4.30;;;9.00;99.90;;;;;;4956210;28;20232;-60
2021/04/22 10:05:27;;;;;;;10.97;4.00;;;9.30;99.90;;;;;;4967833;28;20235;-58
2021/04/22 10:08:05;;;;;;;14.27;4.00;;;9.40;99.90;;;;;;4953795;28;20865;-59
2021/04/22 10:10:34;;;;;;;14.70;4.53;;;9.20;99.90;;;;;;4960775;28;20795;-56
2021/04/22 10:13:07;;;;;;;15.73;4.47;;;9.10;99.90;;;;;;4970158;28;20267;-58
2021/04/22 10:15:35;;;;;;;10.43;4.30;;;9.30;99.90;;;;;;4959134;28;20247;-59
2021/04/22 10:18:05;;;;;;;16.33;4.60;;;9.50;99.90;;;;;;4951238;28;20320;-56
2021/04/22 10:20:36;;;;;;;16.03;4.80;;;9.50;99.90;;;;;;4949701;28;20239;-57
2021/04/22 10:23:05;;;;;;;17.00;4.27;;;9.40;99.90;;;;;;4950368;28;20610;-59
2021/04/22 10:25:35;;;;;;;14.07;4.27;;;9.50;99.90;;;;;;4961634;28;20592;-59
2021/04/22 10:28:06;;;;;;;14.17;4.40;;;9.70;99.90;;;;;;4969843;28;20540;-59
2021/04/22 10:30:36;;;;;;;12.47;4.00;;;9.60;99.90;;;;;;4954595;28;20283;-59
2021/04/22 10:33:05;;;;;;;11.80;4.30;;;9.30;99.90;;;;;;4976211;28;20227;-59
2021/04/22 10:35:35;;;;;;;11.13;3.80;;;9.20;99.90;;;;;;4969380;28;20750;-58
2021/04/22 10:38:04;;;;;;;13.83;4.17;;;9.40;99.90;;;;;;4988716;28;20236;-59
2021/04/22 10:40:36;;;;;;;13.67;4.10;;;9.50;99.90;;;;;;4993750;28;20238;-58
2021/04/22 10:43:08;;;;;;;14.23;4.00;;;9.40;99.90;;;;;;4984608;28;20250;-59
2021/04/22 10:45:38;;;;;;;10.57;3.77;;;9.60;99.90;;;;;;4982724;28;20235;-59
2021/04/22 10:48:06;;;;;;;19.40;4.93;;;9.70;99.90;;;;;;4970288;28;20598;-58
2021/04/22 10:50:38;;;;;;;10.43;3.47;;;9.80;99.90;;;;;;4969204;28;20302;-57
2021/04/22 10:53:10;;;;;;;10.70;3.90;;;9.60;99.90;;;;;;4969652;28;20601;-59
2021/04/22 10:55:43;;;;;;;13.87;3.47;;;9.10;99.90;;;;;;4977277;28;20320;-58
2021/04/22 10:58:19;;;;;;;12.90;4.23;;;8.90;99.90;;;;;;4973777;28;20269;-58
2021/04/22 11:00:50;;;;;;;11.80;4.23;;;9.50;99.90;;;;;;4965020;28;20234;-56
2021/04/22 11:03:27;;;;;;;11.30;3.93;;;10.20;99.90;;;;;;4969112;28;20243;-58
2021/04/22 11:05:58;;;;;;;12.87;3.50;;;10.50;99.90;;;;;;4967811;28;20237;-58
2021/04/22 11:08:38;;;;;;;10.93;3.93;;;10.20;99.90;;;;;;4949850;28;20259;-57
2021/04/22 11:11:19;;;;;;;13.47;4.37;;;10.00;99.90;;;;;;4951235;28;20273;-59
2021/04/22 11:13:49;;;;;;;12.87;3.40;;;10.00;99.90;;;;;;4949362;28;20287;-56
2021/04/22 11:16:28;;;;;;;13.07;3.97;;;9.70;99.90;;;;;;4949619;28;20705;-59
2021/04/22 11:18:56;;;;;;;10.10;3.80;;;9.50;99.90;;;;;;4950234;28;20256;-57
2021/04/22 11:21:27;;;;;;;10.37;3.40;;;9.50;99.90;;;;;;4957534;28;20239;-59
2021/04/22 11:23:57;;;;;;;11.33;3.50;;;9.50;99.90;;;;;;4960942;28;20688;-58
2021/04/22 11:26:31;;;;;;;13.00;3.73;;;9.40;99.90;;;;;;4964979;28;20236;-60
2021/04/22 11:29:12;;;;;;;9.17;3.40;;;9.40;99.90;;;;;;4966130;28;20237;-58
2021/04/22 11:31:47;;;;;;;15.20;4.50;;;9.30;99.90;;;;;;4972002;28;20237;-55
2021/04/22 11:34:16;;;;;;;13.50;3.90;;;9.30;99.90;;;;;;4979532;28;20237;-60
2021/04/22 11:36:51;;;;;;;10.43;3.90;;;9.50;99.90;;;;;;4982111;28;20246;-58
2021/04/22 11:39:29;;;;;;;15.80;4.30;;;9.60;99.90;;;;;;4984108;28;20302;-58
2021/04/22 11:41:59;;;;;;;15.43;4.73;;;9.60;99.90;;;;;;4988484;28;20404;-59
2021/04/22 11:44:35;;;;;;;12.40;4.10;;;9.70;99.90;;;;;;4978717;28;20608;-58
2021/04/22 11:47:33;;;;;;;10.00;4.27;;;9.80;99.90;;;;;;4978756;28;20252;-56
2021/04/22 11:50:11;;;;;;;11.80;4.13;;;9.70;99.90;;;;;;4978603;28;20248;-58
2021/04/22 11:52:47;;;;;;;14.20;4.60;;;9.60;99.90;;;;;;4977273;28;20247;-58
2021/04/22 11:55:25;;;;;;;11.10;3.73;;;10.00;99.90;;;;;;4978282;28;20547;-58
2021/04/22 11:58:06;;;;;;;11.93;4.00;;;10.40;99.90;;;;;;4970774;28;20246;-60
2021/04/22 12:00:40;;;;;;;15.03;3.93;;;10.00;99.90;;;;;;4968410;28;20294;-60
2021/04/22 12:03:09;;;;;;;11.43;4.10;;;9.70;99.90;;;;;;4982566;28;20237;-59
2021/04/22 12:05:38;;;;;;;12.67;4.30;;;9.80;99.90;;;;;;4982774;28;20224;-59
2021/04/22 12:08:08;;;;;;;9.97;3.87;;;9.70;99.90;;;;;;4967180;28;20319;-58
2021/04/22 12:10:39;;;;;;;10.57;3.90;;;9.70;99.90;;;;;;4981697;28;20238;-58
2021/04/22 12:13:10;;;;;;;15.23;3.83;;;9.60;99.90;;;;;;4990232;28;20303;-58
2021/04/22 12:15:43;;;;;;;8.83;3.43;;;9.60;99.90;;;;;;4979034;28;20245;-59
2021/04/22 12:18:21;;;;;;;11.80;3.93;;;9.60;99.90;;;;;;4972624;28;20263;-59
2021/04/22 12:20:48;;;;;;;12.80;3.90;;;9.50;99.90;;;;;;4987127;28;20264;-58
2021/04/22 12:23:19;;;;;;;11.03;4.23;;;9.40;99.90;;;;;;4991425;28;20239;-60
2021/04/22 12:25:48;;;;;;;10.37;3.90;;;9.30;99.90;;;;;;4982248;28;20243;-59
2021/04/22 12:28:16;;;;;;;12.90;4.10;;;9.20;99.90;;;;;;4990031;28;20333;-58
2021/04/22 12:30:46;;;;;;;11.87;3.60;;;9.30;99.90;;;;;;4983540;28;20246;-58
2021/04/22 12:33:16;;;;;;;10.13;3.60;;;9.50;99.90;;;;;;4969715;28;20301;-57
2021/04/22 12:35:47;;;;;;;10.53;4.13;;;9.70;99.90;;;;;;4959655;28;20243;-58
2021/04/22 12:38:20;;;;;;;11.33;3.97;;;10.00;99.90;;;;;;4963597;28;20283;-59
2021/04/22 12:40:56;;;;;;;9.73;4.00;;;10.00;99.90;;;;;;4966742;28;20718;-55
2021/04/22 12:43:26;;;;;;;10.13;3.47;;;10.10;99.90;;;;;;4971389;28;20608;-59
2021/04/22 12:45:54;;;;;;;12.10;4.10;;;10.20;99.90;;;;;;4971134;28;20327;-60
2021/04/22 12:48:22;;;;;;;14.30;3.93;;;10.10;99.90;;;;;;4971713;28;20294;-58
2021/04/22 12:50:52;;;;;;;9.87;3.73;;;10.00;99.90;;;;;;4964534;28;20243;-58
2021/04/22 12:53:21;;;;;;;8.70;3.80;;;9.80;99.90;;;;;;4971478;28;21025;-58
2021/04/22 12:55:52;;;;;;;9.63;3.40;;;9.60;99.90;;;;;;4971454;28;20243;-57
2021/04/22 12:58:24;;;;;;;8.70;3.73;;;9.30;99.90;;;;;;4971642;28;20242;-59
2021/04/22 13:00:55;;;;;;;11.60;3.67;;;9.10;99.90;;;;;;4978955;28;20670;-59